Agnew, Washington
Current Conditions -  °F | °C
As of 8:53 PM on Saturday 25 Oct 2014 (Local Time) from KCLM Reporting Station
Overcast Overcast  
Wind Chill: 12°   Ceiling: 6500
Heat Index: 12°   Visibility: 10mi
Dew Point:   Wind: 29mph
Humidity: 71%   Direction: 260°W
Pressure: 29.45"   Gusts: 45mph
Location:  48.0203°N, 123.478°W
Report Text: KCLM 260353Z AUTO 26025G39KT 10SM OVC065 12/07 A2945 RMK AO2 PK WND 26041/0335 RAB18E52 SLP975 P0000 T01170067 TSNO $
Loading
Personal Weather Stations






























Interactive Weather Map
Tropical Storm Tracking
New forecast layout! Learn more

10-Day Weather Forecast

Advertisements
Track Severe Weather on mobile